createdAt,value
2023-05-01T00:01:33.742Z,25.26
2023-05-01T00:03:39.563Z,25.3
2023-05-01T00:05:44.816Z,25.36
2023-05-01T00:07:49.845Z,25.25
2023-05-01T00:09:55.211Z,25.22
2023-05-01T00:12:00.400Z,25.21
2023-05-01T00:14:05.414Z,25.22
2023-05-01T00:16:10.614Z,25.24
2023-05-01T00:18:16.082Z,25.25
2023-05-01T00:20:21.329Z,25.32
2023-05-01T00:22:26.371Z,25.32
2023-05-01T00:24:31.487Z,25.35
2023-05-01T00:26:36.593Z,25.26
2023-05-01T00:28:41.672Z,25.33
2023-05-01T00:30:46.777Z,25.47
2023-05-01T00:32:51.856Z,25.35
2023-05-01T00:34:57.063Z,25.33
2023-05-01T00:37:02.129Z,25.39
2023-05-01T00:39:07.277Z,25.37
2023-05-01T00:41:12.370Z,25.37
2023-05-01T00:43:17.403Z,25.38
2023-05-01T00:45:22.428Z,25.48
2023-05-01T00:47:27.713Z,25.32
2023-05-01T00:49:32.734Z,25.39
2023-05-01T00:51:37.714Z,25.36
2023-05-01T00:53:42.749Z,25.41
2023-05-01T00:55:47.829Z,25.43
2023-05-01T00:57:52.991Z,25.49
2023-05-01T00:59:58.840Z,25.49
2023-05-01T01:02:03.915Z,25.55
2023-05-01T01:04:09.211Z,25.44
2023-05-01T01:06:14.385Z,25.5
2023-05-01T01:08:19.513Z,25.51
2023-05-01T01:10:24.636Z,25.57
2023-05-01T01:12:29.694Z,25.55
2023-05-01T01:14:34.796Z,25.52
2023-05-01T01:16:40.003Z,25.58
2023-05-01T01:18:45.050Z,25.6
2023-05-01T01:20:50.196Z,25.51
2023-05-01T01:22:55.205Z,25.58
2023-05-01T01:25:00.513Z,25.53
2023-05-01T01:27:05.542Z,25.59
2023-05-01T01:29:10.587Z,25.57
2023-05-01T01:31:15.769Z,25.5
2023-05-01T01:33:20.992Z,25.62
2023-05-01T01:35:26.116Z,25.6
2023-05-01T01:37:31.251Z,25.72
2023-05-01T01:39:36.365Z,25.55
2023-05-01T01:41:41.410Z,25.65
2023-05-01T01:43:46.535Z,25.72
2023-05-01T01:45:51.844Z,25.67
2023-05-01T01:47:57.000Z,25.69
2023-05-01T01:50:02.068Z,25.78
2023-05-01T01:52:07.097Z,25.73
2023-05-01T01:54:12.283Z,25.7
2023-05-01T01:56:17.358Z,25.62
2023-05-01T01:58:22.381Z,25.74
2023-05-01T02:00:27.451Z,25.75
2023-05-01T02:02:32.827Z,25.86
2023-05-01T02:04:37.904Z,25.77
2023-05-01T02:06:43.248Z,25.79
2023-05-01T02:08:48.368Z,25.88
2023-05-01T02:10:53.440Z,25.88
2023-05-01T02:12:58.564Z,25.9
2023-05-01T02:15:03.617Z,25.95
2023-05-01T02:17:08.646Z,25.89
2023-05-01T02:19:13.693Z,25.9
2023-05-01T02:21:18.722Z,26.01
2023-05-01T02:23:23.813Z,25.95
2023-05-01T02:25:31.635Z,25.92
2023-05-01T02:27:36.717Z,25.86
2023-05-01T02:29:41.725Z,25.88
2023-05-01T02:31:47.016Z,25.92
2023-05-01T02:33:52.090Z,25.89
2023-05-01T02:35:57.364Z,26.04
2023-05-01T02:38:02.571Z,26.05
2023-05-01T02:40:07.579Z,26.07
2023-05-01T02:42:12.715Z,26
2023-05-01T02:44:17.793Z,26
2023-05-01T02:46:23.312Z,26.07
2023-05-01T02:48:28.418Z,26
2023-05-01T02:50:33.537Z,25.99
2023-05-01T02:52:38.703Z,26.03
2023-05-01T02:54:43.719Z,26.03
2023-05-01T02:56:48.751Z,26
2023-05-01T02:58:53.900Z,26.05
2023-05-01T03:00:59.055Z,26.03
2023-05-01T03:03:04.420Z,26.05
2023-05-01T03:05:09.559Z,26.13
2023-05-01T03:07:14.692Z,26.09
2023-05-01T03:09:19.809Z,26.1
2023-05-01T03:11:24.793Z,26.11
2023-05-01T03:13:29.843Z,26.16
2023-05-01T03:15:34.919Z,26.12
2023-05-01T03:17:40.159Z,26.2
2023-05-01T03:19:45.310Z,26.31
2023-05-01T03:21:50.376Z,26.36
2023-05-01T03:23:55.537Z,26.44
2023-05-01T03:26:00.571Z,26.52
2023-05-01T03:28:05.775Z,26.43
2023-05-01T03:30:10.790Z,26.48
2023-05-01T03:32:16.352Z,26.4
2023-05-01T03:34:21.457Z,26.44
2023-05-01T03:36:26.533Z,26.35
2023-05-01T03:40:07.574Z,26.48
2023-05-01T03:42:12.798Z,26.47
2023-05-01T03:44:17.811Z,26.39
2023-05-01T03:46:23.120Z,26.44
2023-05-01T03:48:28.194Z,26.4
2023-05-01T03:50:33.343Z,26.37
2023-05-01T03:52:38.408Z,26.36
2023-05-01T03:54:43.626Z,26.36
2023-05-01T03:56:48.664Z,26.4
2023-05-01T03:58:53.783Z,26.3
2023-05-01T04:00:58.804Z,26.41
2023-05-01T04:03:04.954Z,26.36
2023-05-01T04:05:10.156Z,26.36
2023-05-01T04:07:15.211Z,26.3
2023-05-01T04:09:20.415Z,26.35
2023-05-01T04:11:25.537Z,26.42
2023-05-01T04:13:30.634Z,26.37
2023-05-01T04:15:35.846Z,26.36
2023-05-01T04:17:41.049Z,26.38
2023-05-01T04:19:46.119Z,26.43
2023-05-01T04:21:51.143Z,26.41
2023-05-01T04:23:56.176Z,26.43
2023-05-01T04:26:01.220Z,26.44
2023-05-01T04:28:06.392Z,26.47
2023-05-01T04:30:11.470Z,26.42
2023-05-01T04:32:16.686Z,26.47
2023-05-01T04:34:21.815Z,26.49
2023-05-01T04:36:26.929Z,26.57
2023-05-01T04:38:32.059Z,26.57
2023-05-01T04:40:37.095Z,26.63
2023-05-01T04:42:42.207Z,26.58
2023-05-01T04:44:47.349Z,26.64
2023-05-01T04:46:52.619Z,26.75
2023-05-01T04:48:57.781Z,26.67
2023-05-01T04:51:02.844Z,26.74
2023-05-01T04:53:07.867Z,26.74
2023-05-01T04:55:13.067Z,26.79
2023-05-01T04:57:18.190Z,26.8
2023-05-01T04:59:23.392Z,26.86
2023-05-01T05:01:28.640Z,26.84
2023-05-01T05:03:34.248Z,26.9
2023-05-01T05:05:39.442Z,26.84
2023-05-01T05:07:44.425Z,26.83
2023-05-01T05:09:49.647Z,26.88
2023-05-01T05:11:54.954Z,26.84
2023-05-01T05:14:00.023Z,26.87
2023-05-01T05:16:05.282Z,26.81
2023-05-01T05:18:10.686Z,26.71
2023-05-01T05:20:15.764Z,26.71
2023-05-01T05:22:20.792Z,26.69
2023-05-01T05:24:25.952Z,26.72
2023-05-01T05:26:31.085Z,26.63
2023-05-01T05:28:36.222Z,26.49
2023-05-01T05:30:41.524Z,26.38
2023-05-01T05:32:46.761Z,26.28
2023-05-01T05:34:51.839Z,26.22
2023-05-01T05:36:56.955Z,26.3
2023-05-01T05:39:02.184Z,26.06
2023-05-01T05:41:07.208Z,26.04
2023-05-01T05:43:12.630Z,25.94
2023-05-01T05:45:17.686Z,25.83
2023-05-01T05:47:22.827Z,25.84
2023-05-01T05:49:27.963Z,25.8
2023-05-01T05:51:32.979Z,26.58
2023-05-01T05:53:38.190Z,25.92
2023-05-01T05:55:43.248Z,25.65
2023-05-01T05:57:48.279Z,25.76
2023-05-01T05:59:53.287Z,25.63
2023-05-01T06:01:58.350Z,25.48
2023-05-01T06:04:03.980Z,25.41
2023-05-01T06:06:09.475Z,25.73
2023-05-01T06:08:14.937Z,27.21
2023-05-01T06:10:19.940Z,27.09
2023-05-01T06:12:25.907Z,27.73
2023-05-01T06:14:31.409Z,27.9
2023-05-01T06:16:36.601Z,27.25
2023-05-01T06:18:42.400Z,26.95
2023-05-01T06:20:48.771Z,27.53
2023-05-01T06:22:53.767Z,26.63
2023-05-01T06:24:59.112Z,27.39
2023-05-01T06:27:04.137Z,26.76
2023-05-01T06:29:09.224Z,26.58
2023-05-01T06:31:14.515Z,26.38
2023-05-01T06:33:19.694Z,25.7
2023-05-01T06:35:24.753Z,25.37
2023-05-01T06:37:29.889Z,25.65
2023-05-01T06:39:35.140Z,25.03
2023-05-01T06:41:40.405Z,25.13
2023-05-01T06:43:45.572Z,24.93
2023-05-01T06:45:50.615Z,24.92
2023-05-01T06:47:55.921Z,24.72
2023-05-01T06:50:04.517Z,24.53
2023-05-01T06:52:10.471Z,24.35
2023-05-01T06:54:15.552Z,24.29
2023-05-01T06:56:20.626Z,24.5
2023-05-01T06:58:27.059Z,24.5
2023-05-01T07:00:32.309Z,24.51
2023-05-01T07:02:38.447Z,24.49
2023-05-01T07:04:43.564Z,24.45
2023-05-01T07:06:48.922Z,24.53
2023-05-01T07:08:54.044Z,24.48
2023-05-01T07:10:59.056Z,24.38
2023-05-01T07:13:04.254Z,24.45
2023-05-01T07:15:09.275Z,24.61
2023-05-01T07:17:14.465Z,24.39
2023-05-01T07:19:19.517Z,24.34
2023-05-01T07:21:24.567Z,24.22
2023-05-01T07:23:29.672Z,24.16
2023-05-01T07:25:34.845Z,24.35
2023-05-01T07:27:39.910Z,24.27
2023-05-01T07:29:45.034Z,24.37
2023-05-01T07:31:50.310Z,24.36
2023-05-01T07:33:56.722Z,24.32
2023-05-01T07:36:01.855Z,24.19
2023-05-01T07:38:07.008Z,24.47
2023-05-01T07:40:12.330Z,24.24
2023-05-01T07:42:17.367Z,24.52
2023-05-01T07:44:22.633Z,24.24
2023-05-01T07:46:28.017Z,24.13
2023-05-01T07:48:33.212Z,24.01
2023-05-01T07:50:38.543Z,23.94
2023-05-01T07:52:43.886Z,23.96
2023-05-01T07:54:48.933Z,23.83
2023-05-01T07:56:53.989Z,23.97
2023-05-01T07:58:59.406Z,24.12
2023-05-01T08:01:04.555Z,24
2023-05-01T08:03:10.519Z,24.21
2023-05-01T08:05:15.682Z,24.03
2023-05-01T08:07:20.831Z,24.28
2023-05-01T08:09:25.940Z,24.14
2023-05-01T08:11:31.022Z,25
2023-05-01T08:13:36.123Z,24.87
2023-05-01T08:15:41.406Z,24.4
2023-05-01T08:17:46.758Z,25.33
2023-05-01T08:19:52.124Z,24.82
2023-05-01T08:21:57.265Z,25.11
2023-05-01T08:24:02.397Z,24.66
2023-05-01T08:26:07.520Z,24.17
2023-05-01T08:28:12.730Z,24.2
2023-05-01T08:30:17.781Z,24.77
2023-05-01T08:32:22.848Z,24.68
2023-05-01T08:34:27.962Z,24.22
2023-05-01T08:36:33.089Z,24.7
2023-05-01T08:38:38.718Z,24.4
2023-05-01T08:40:43.873Z,24.2
2023-05-01T08:42:48.981Z,24.53
2023-05-01T08:44:54.143Z,24.19
2023-05-01T08:46:59.326Z,24.11
2023-05-01T08:49:04.395Z,24.36
2023-05-01T08:51:09.512Z,23.96
2023-05-01T08:53:14.673Z,23.82
2023-05-01T08:55:19.857Z,23.98
2023-05-01T08:57:25.011Z,23.65
2023-05-01T08:59:30.195Z,23.92
2023-05-01T09:01:35.526Z,24.71
2023-05-01T09:03:40.774Z,23.81
2023-05-01T09:05:45.857Z,24.33
2023-05-01T09:07:51.000Z,23.5
2023-05-01T09:09:56.788Z,23.67
2023-05-01T09:12:02.076Z,23.55
2023-05-01T09:14:07.166Z,24.26
2023-05-01T09:16:12.627Z,24.34
2023-05-01T09:18:17.974Z,23.93
2023-05-01T09:20:23.367Z,24.34
2023-05-01T09:22:28.398Z,24.51
2023-05-01T09:24:33.418Z,24.95
2023-05-01T09:26:38.475Z,24.83
2023-05-01T09:28:43.545Z,24.36
2023-05-01T09:30:48.746Z,24.53
2023-05-01T09:32:53.962Z,24.87
2023-05-01T09:34:59.099Z,24.48
2023-05-01T09:37:04.397Z,24.71
2023-05-01T09:39:09.413Z,24.45
2023-05-01T09:41:14.661Z,24.9
2023-05-01T09:43:19.827Z,24.57
2023-05-01T09:45:24.915Z,25.08
2023-05-01T09:47:30.198Z,25.02
2023-05-01T09:49:35.251Z,24.58
2023-05-01T09:51:40.267Z,24.04
2023-05-01T09:53:45.274Z,23.7
2023-05-01T09:55:50.340Z,23.99
2023-05-01T09:57:55.509Z,24.21
2023-05-01T10:00:00.985Z,23.96
2023-05-01T10:02:06.334Z,24.46
2023-05-01T10:04:11.702Z,24.86
2023-05-01T10:06:16.999Z,24.69
2023-05-01T10:08:22.174Z,24.51
2023-05-01T10:10:27.368Z,24.67
2023-05-01T10:12:32.416Z,24.62
2023-05-01T10:14:37.474Z,24.61
2023-05-01T10:16:42.951Z,24.79
2023-05-01T10:18:48.212Z,24.95
2023-05-01T10:20:53.320Z,24.6
2023-05-01T10:22:58.349Z,24.64
2023-05-01T10:25:03.413Z,24.17
2023-05-01T10:27:08.523Z,24.18
2023-05-01T10:29:13.686Z,24.47
2023-05-01T10:31:18.951Z,24.5
2023-05-01T10:33:24.412Z,24.21
2023-05-01T10:35:29.558Z,24.56
2023-05-01T10:37:34.743Z,24.83
2023-05-01T10:39:39.927Z,25.54
2023-05-01T10:41:45.082Z,24.92
2023-05-01T10:43:50.162Z,24.77
2023-05-01T10:45:55.524Z,24.89
2023-05-01T10:48:00.792Z,24.94
2023-05-01T10:50:06.073Z,25.08
2023-05-01T10:52:11.116Z,25.24
2023-05-01T10:54:16.276Z,25.32
2023-05-01T10:56:21.322Z,24.74
2023-05-01T10:58:26.515Z,24.36
2023-05-01T11:00:31.640Z,23.75
2023-05-01T11:02:36.910Z,23.49
2023-05-01T11:04:42.053Z,24.15
2023-05-01T11:06:47.271Z,24.6
2023-05-01T11:08:52.395Z,24.39
2023-05-01T11:10:57.462Z,22.93
2023-05-01T11:13:02.639Z,21.87
2023-05-01T11:15:07.743Z,21.52
2023-05-01T11:17:12.757Z,20.97
2023-05-01T11:19:17.954Z,20.29
2023-05-01T11:21:23.064Z,20.08
2023-05-01T11:23:28.382Z,20.19
2023-05-01T11:25:33.534Z,20.53
2023-05-01T11:27:38.578Z,20.36
2023-05-01T11:29:43.665Z,20.52
2023-05-01T11:31:48.985Z,20.7
2023-05-01T11:33:54.222Z,20.97
2023-05-01T11:35:59.285Z,20.9
2023-05-01T11:38:04.305Z,20.55
2023-05-01T11:40:09.433Z,21.05
2023-05-01T11:42:14.788Z,20.48
2023-05-01T11:44:20.064Z,21.04
2023-05-01T11:46:25.405Z,20.78
2023-05-01T11:48:30.558Z,20.27
2023-05-01T11:50:35.898Z,20.21
2023-05-01T11:52:41.074Z,19.86
2023-05-01T11:54:46.231Z,19.89
2023-05-01T11:56:51.401Z,19.41
2023-05-01T11:58:56.632Z,19.75
2023-05-01T12:01:01.852Z,19.32
2023-05-01T12:03:08.074Z,19.02
2023-05-01T12:05:13.536Z,18.78
2023-05-01T12:07:18.568Z,18.49
2023-05-01T12:09:23.789Z,18.47
2023-05-01T12:11:29.227Z,18.44
2023-05-01T12:13:34.318Z,18.63
2023-05-01T12:15:39.486Z,18.66
2023-05-01T12:17:44.580Z,18.86
2023-05-01T12:19:49.631Z,18.88
2023-05-01T12:21:54.754Z,19.32
2023-05-01T12:23:59.830Z,19.81
2023-05-01T12:26:05.108Z,19.78
2023-05-01T12:28:10.173Z,19.63
2023-05-01T12:30:15.253Z,19.76
2023-05-01T12:32:20.488Z,19.31
2023-05-01T12:34:25.594Z,19.28
2023-05-01T12:36:30.808Z,19.49
2023-05-01T12:38:35.844Z,19.57
2023-05-01T12:40:40.959Z,19.95
2023-05-01T12:42:46.086Z,19.88
2023-05-01T12:44:51.176Z,20.43
2023-05-01T12:46:57.013Z,20.17
2023-05-01T12:49:02.349Z,20.76
2023-05-01T12:51:07.412Z,20.43
2023-05-01T12:53:12.465Z,19.91
2023-05-01T12:55:17.594Z,19.84
2023-05-01T12:57:22.711Z,19.42
2023-05-01T12:59:27.794Z,20.02
2023-05-01T13:01:33.248Z,19.65
2023-05-01T13:03:42.849Z,19.27
2023-05-01T13:05:48.166Z,19.75
2023-05-01T13:07:53.328Z,19.39
2023-05-01T13:09:59.383Z,20.04
2023-05-01T13:12:04.789Z,19.36
2023-05-01T13:14:09.873Z,19.97
2023-05-01T13:16:15.696Z,19.5
2023-05-01T13:18:20.766Z,19.41
2023-05-01T13:20:25.832Z,19.24
2023-05-01T13:22:31.116Z,19.25
2023-05-01T13:24:36.219Z,19.13
2023-05-01T13:26:41.285Z,19.75
2023-05-01T13:28:46.395Z,19.89
2023-05-01T13:30:51.456Z,19.93
2023-05-01T13:32:56.699Z,19.96
2023-05-01T13:35:01.830Z,19.85
2023-05-01T13:37:07.062Z,20.14
2023-05-01T13:39:12.171Z,20.47
2023-05-01T13:41:17.227Z,20.69
2023-05-01T13:43:22.285Z,20.41
2023-05-01T13:45:27.601Z,20.34
2023-05-01T13:47:33.128Z,20.98
2023-05-01T13:49:38.241Z,20.61
2023-05-01T13:51:43.370Z,20.33
2023-05-01T13:53:48.418Z,20.19
2023-05-01T13:55:53.441Z,20.26
2023-05-01T13:57:58.656Z,20.76
2023-05-01T14:00:03.829Z,20.62
2023-05-01T14:02:09.068Z,20.83
2023-05-01T14:04:14.161Z,20.62
2023-05-01T14:06:19.465Z,20.6
2023-05-01T14:08:24.624Z,20.68
2023-05-01T14:10:29.841Z,20.83
2023-05-01T14:12:34.922Z,20.99
2023-05-01T14:14:39.996Z,20.86
2023-05-01T14:16:45.249Z,21.32
2023-05-01T14:18:50.391Z,21.65
2023-05-01T14:20:55.415Z,21.47
2023-05-01T14:23:00.545Z,21.77
2023-05-01T14:25:05.614Z,21.84
2023-05-01T14:27:10.683Z,21.1
2023-05-01T14:29:15.735Z,20.9
2023-05-01T14:31:20.985Z,20.71
2023-05-01T14:33:26.199Z,21.01
2023-05-01T14:35:31.338Z,21.23
2023-05-01T14:37:36.532Z,21.11
2023-05-01T14:39:41.670Z,21.23
2023-05-01T14:41:46.919Z,21.5
2023-05-01T14:43:52.023Z,21.73
2023-05-01T14:45:57.308Z,21.43
2023-05-01T14:48:02.630Z,21.46
2023-05-01T14:50:07.845Z,21.37
2023-05-01T14:52:12.873Z,21.78
2023-05-01T14:54:17.928Z,21.47
2023-05-01T14:56:23.111Z,20.92
2023-05-01T14:58:28.168Z,21.22
2023-05-01T15:00:33.228Z,21.17
2023-05-01T15:02:38.778Z,21.19
2023-05-01T15:04:44.038Z,21.06
2023-05-01T15:06:49.460Z,21.12
2023-05-01T15:08:54.634Z,20.95
2023-05-01T15:10:59.679Z,20.85
2023-05-01T15:13:04.751Z,21.11
2023-05-01T15:15:09.830Z,21.04
2023-05-01T15:17:14.962Z,20.58
2023-05-01T15:19:20.094Z,21.1
2023-05-01T15:21:25.265Z,21.21
2023-05-01T15:23:30.387Z,21.39
2023-05-01T15:25:35.423Z,21.16
2023-05-01T15:27:40.619Z,21.46
2023-05-01T15:29:45.777Z,21.69
2023-05-01T15:32:13.084Z,21.52
2023-05-01T15:34:18.313Z,21.29
2023-05-01T15:36:23.399Z,21.47
2023-05-01T15:38:28.961Z,21.55
2023-05-01T15:40:34.075Z,21.38
2023-05-01T15:42:39.144Z,21.63
2023-05-01T15:44:44.217Z,21.45
2023-05-01T15:46:49.761Z,21.62
2023-05-01T15:48:54.872Z,21.8
2023-05-01T15:50:59.959Z,21.84
2023-05-01T15:53:05.171Z,21.66
2023-05-01T15:55:10.199Z,21.75
2023-05-01T15:57:15.237Z,21.8
2023-05-01T15:59:20.520Z,22.08
2023-05-01T16:01:25.759Z,22.17
2023-05-01T16:03:31.551Z,22.19
2023-05-01T16:05:36.738Z,22.58
2023-05-01T16:07:41.921Z,22.71
2023-05-01T16:09:47.152Z,22.7
2023-05-01T16:11:52.259Z,22.76
2023-05-01T16:13:57.391Z,22.83
2023-05-01T16:16:02.445Z,22.96
2023-05-01T16:18:07.841Z,23.05
2023-05-01T16:20:13.024Z,23.25
2023-05-01T16:22:18.156Z,23.34
2023-05-01T16:24:23.262Z,23.45
2023-05-01T16:27:01.147Z,23.3
2023-05-01T16:29:07.161Z,23.63
2023-05-01T16:31:29.071Z,23.76
2023-05-01T16:33:33.997Z,24.04
2023-05-01T16:35:39.013Z,24.07
2023-05-01T16:37:44.053Z,24.04
2023-05-01T16:39:49.226Z,24.24
2023-05-01T16:41:54.328Z,24.22
2023-05-01T16:43:59.350Z,24.33
2023-05-01T16:46:04.768Z,24.39
2023-05-01T16:48:10.075Z,24.34
2023-05-01T16:50:15.278Z,24.47
2023-05-01T16:52:20.355Z,24.47
2023-05-01T16:54:25.318Z,24.57
2023-05-01T16:56:30.411Z,24.73
2023-05-01T16:58:35.618Z,24.79
2023-05-01T17:00:40.871Z,24.96
2023-05-01T17:02:46.432Z,25.12
2023-05-01T17:04:51.783Z,25.07
2023-05-01T17:06:57.356Z,25.13
2023-05-01T17:09:02.593Z,25.24
2023-05-01T17:11:07.787Z,25.31
2023-05-01T17:13:12.802Z,25.55
2023-05-01T17:15:17.877Z,25.89
2023-05-01T17:17:23.011Z,25.88
2023-05-01T17:19:28.193Z,25.87
2023-05-01T17:21:33.310Z,25.84
2023-05-01T17:23:38.392Z,26.13
2023-05-01T17:25:43.389Z,26
2023-05-01T17:27:48.614Z,26.09
2023-05-01T17:29:53.715Z,26.21
2023-05-01T17:31:58.909Z,26.16
2023-05-01T17:34:04.004Z,26.19
2023-05-01T17:36:09.059Z,26.3
2023-05-01T17:38:14.112Z,26.26
2023-05-01T17:40:19.164Z,26.45
2023-05-01T17:42:24.180Z,26.63
2023-05-01T17:44:29.190Z,26.75
2023-05-01T17:46:34.730Z,26.9
2023-05-01T17:48:39.803Z,26.94
2023-05-01T17:50:44.786Z,27.11
2023-05-01T17:52:49.800Z,26.94
2023-05-01T17:54:54.877Z,27.3
2023-05-01T17:56:59.982Z,27.37
2023-05-01T17:59:05.001Z,27.44
2023-05-01T18:01:10.310Z,27.45
2023-05-01T18:03:16.019Z,27.44
2023-05-01T18:05:21.064Z,27.51
2023-05-01T18:07:26.131Z,27.73
2023-05-01T18:09:31.659Z,27.94
2023-05-01T18:11:36.890Z,28.01
2023-05-01T18:13:42.083Z,28.12
2023-05-01T18:15:47.437Z,28.19
2023-05-01T18:17:53.222Z,28.32
2023-05-01T18:19:59.054Z,28.6
2023-05-01T18:22:04.436Z,28.59
2023-05-01T18:24:09.458Z,28.76
2023-05-01T18:26:14.465Z,28.92
2023-05-01T18:28:19.498Z,29.14
2023-05-01T18:30:24.507Z,29.22
2023-05-01T18:32:50.321Z,29.35
2023-05-01T18:34:55.459Z,29.57
2023-05-01T18:37:00.491Z,29.53
2023-05-01T18:39:05.503Z,29.82
2023-05-01T18:41:10.510Z,29.51
2023-05-01T18:43:15.593Z,29.74
2023-05-01T18:45:20.581Z,29.68
2023-05-01T18:47:25.633Z,29.74
2023-05-01T18:49:30.678Z,29.9
2023-05-01T18:51:35.700Z,29.84
2023-05-01T18:53:40.726Z,29.93
2023-05-01T18:55:45.705Z,29.95
2023-05-01T18:57:50.715Z,30.07
2023-05-01T18:59:55.688Z,30.08
2023-05-01T19:02:01.109Z,30.21
2023-05-01T19:04:06.211Z,30.42
2023-05-01T19:06:11.289Z,30.54
2023-05-01T19:08:16.317Z,30.78
2023-05-01T19:10:21.340Z,30.69
2023-05-01T19:12:26.319Z,30.75
2023-05-01T19:14:31.300Z,30.81
2023-05-01T19:16:36.560Z,30.76
2023-05-01T19:18:41.742Z,30.75
2023-05-01T19:20:46.709Z,30.84
2023-05-01T19:22:51.689Z,30.86
2023-05-01T19:24:56.674Z,30.92
2023-05-01T19:27:01.688Z,30.79
2023-05-01T19:29:06.730Z,31.09
2023-05-01T19:31:14.684Z,31.07
2023-05-01T19:33:20.317Z,31.2
2023-05-01T19:35:25.457Z,31.18
2023-05-01T19:37:30.785Z,31.27
2023-05-01T19:39:35.812Z,31.16
2023-05-01T19:41:40.970Z,31.2
2023-05-01T19:43:46.148Z,31.2
2023-05-01T19:45:51.546Z,31.32
2023-05-01T19:47:56.878Z,31.4
2023-05-01T19:50:03.109Z,31.42
2023-05-01T19:52:08.334Z,31.47
2023-05-01T19:54:13.439Z,31.64
2023-05-01T19:56:18.402Z,31.29
2023-05-01T19:58:23.383Z,31.46
2023-05-01T20:00:28.410Z,31.47
2023-05-01T20:02:33.817Z,31.49
2023-05-01T20:04:39.218Z,31.66
2023-05-01T20:06:44.383Z,31.59
2023-05-01T20:08:49.492Z,31.41
2023-05-01T20:10:54.566Z,31.42
2023-05-01T20:12:59.807Z,31.68
2023-05-01T20:15:06.146Z,31.29
2023-05-01T20:17:11.599Z,31.01
2023-05-01T20:19:16.754Z,31.12
2023-05-01T20:21:21.813Z,31.47
2023-05-01T20:23:26.872Z,31.45
2023-05-01T20:25:31.916Z,31.43
2023-05-01T20:27:36.938Z,31.29
2023-05-01T20:29:41.948Z,31.38
2023-05-01T20:31:46.977Z,31.35
2023-05-01T20:33:51.957Z,31.39
2023-05-01T20:35:57.047Z,31.07
2023-05-01T20:38:02.090Z,31.53
2023-05-01T20:40:07.305Z,31.18
2023-05-01T20:42:12.299Z,31.2
2023-05-01T20:44:17.331Z,31.17
2023-05-01T20:46:22.583Z,31.41
2023-05-01T20:48:27.591Z,31.42
2023-05-01T20:50:32.559Z,31.45
2023-05-01T20:52:37.628Z,31.32
2023-05-01T20:54:42.713Z,31.42
2023-05-01T20:56:47.698Z,31.37
2023-05-01T20:58:52.830Z,31.39
2023-05-01T21:00:57.871Z,31.57
2023-05-01T21:03:03.310Z,31.69
2023-05-01T21:05:08.348Z,31.55
2023-05-01T21:07:13.336Z,31.61
2023-05-01T21:09:18.342Z,31.58
2023-05-01T21:11:23.473Z,31.16
2023-05-01T21:13:28.469Z,31.16
2023-05-01T21:15:33.479Z,31.3
2023-05-01T21:17:38.677Z,31.12
2023-05-01T21:19:43.630Z,31.45
2023-05-01T21:21:48.644Z,31.39
2023-05-01T21:23:53.666Z,31.47
2023-05-01T21:25:58.888Z,31.48
2023-05-01T21:28:03.974Z,31.68
2023-05-01T21:30:08.943Z,31.61
2023-05-01T21:32:13.978Z,31.78
2023-05-01T21:34:19.082Z,31.61
2023-05-01T21:36:24.088Z,31.4
2023-05-01T21:38:29.039Z,31.62
2023-05-01T21:40:34.104Z,31.73
2023-05-01T21:42:39.210Z,31.37
2023-05-01T21:44:44.207Z,31.23
2023-05-01T21:46:49.391Z,31.32
2023-05-01T21:48:54.429Z,31.47
2023-05-01T21:50:59.566Z,31.38
2023-05-01T21:53:04.583Z,31.29
2023-05-01T21:55:09.606Z,31.44
2023-05-01T21:57:14.688Z,31.73
2023-05-01T21:59:19.647Z,31.67
2023-05-01T22:01:24.838Z,31.91
2023-05-01T22:03:30.149Z,31.81
2023-05-01T22:05:35.344Z,31.98
2023-05-01T22:07:40.288Z,32.09
2023-05-01T22:09:45.286Z,32.04
2023-05-01T22:11:50.281Z,32.18
2023-05-01T22:13:55.304Z,32.08
2023-05-01T22:16:00.291Z,32.18
2023-05-01T22:18:05.666Z,32.08
2023-05-01T22:20:10.694Z,32.3
2023-05-01T22:22:15.705Z,32.38
2023-05-01T22:24:20.741Z,32.54
2023-05-01T22:26:25.691Z,32.25
2023-05-01T22:28:30.782Z,32
2023-05-01T22:30:36.034Z,32.24
2023-05-01T22:32:41.169Z,32.18
2023-05-01T22:34:46.196Z,32.28
2023-05-01T22:36:51.204Z,32.58
2023-05-01T22:38:56.175Z,32.68
2023-05-01T22:41:01.184Z,32.64
2023-05-01T22:43:06.193Z,32.58
2023-05-01T22:45:11.194Z,32.71
2023-05-01T22:47:16.275Z,32.71
2023-05-01T22:49:21.330Z,32.59
2023-05-01T22:51:26.333Z,32.8
2023-05-01T22:53:31.369Z,32.77
2023-05-01T22:55:36.340Z,32.78
2023-05-01T22:57:41.304Z,32.7
2023-05-01T22:59:46.303Z,32.89
2023-05-01T23:01:51.469Z,32.98
2023-05-01T23:03:57.276Z,32.94
2023-05-01T23:06:02.502Z,32.81
2023-05-01T23:08:07.511Z,33.03
2023-05-01T23:10:12.556Z,33.08
2023-05-01T23:12:17.660Z,33.17
2023-05-01T23:14:22.740Z,33.08
2023-05-01T23:16:28.066Z,33.18
2023-05-01T23:18:33.113Z,33.15
2023-05-01T23:20:38.247Z,33.28
2023-05-01T23:22:43.237Z,33.34
2023-05-01T23:24:48.244Z,33.34
2023-05-01T23:26:53.255Z,33.38
2023-05-01T23:28:58.207Z,33.26
2023-05-01T23:31:03.368Z,33.33
2023-05-01T23:33:08.706Z,33.39
2023-05-01T23:35:13.778Z,33.39
2023-05-01T23:37:18.792Z,33.45
2023-05-01T23:39:23.777Z,33.5
2023-05-01T23:41:28.754Z,33.42
2023-05-01T23:43:33.686Z,33.51
2023-05-01T23:45:38.698Z,33.55
2023-05-01T23:47:44.022Z,33.57
2023-05-01T23:49:49.127Z,33.59
2023-05-01T23:51:54.181Z,33.56
2023-05-01T23:53:59.290Z,33.48
2023-05-01T23:56:04.248Z,33.47
2023-05-01T23:58:09.277Z,33.54
